Time;durP1;ratioP1;P1;durP2;ratioP2;P2;SDS_P1;SDS_P2;PMS_P1;PMS_P2;Temp;Humidity;BMP_temperature;BMP_pressure;BME280_temperature;BME280_humidity;BME280_pressure;Samples;Min_cycle;Max_cycle;Signal;HPM_P1;HPM_P2
2022/08/31 00:04:01;;;;;;;;;;;;;;;;;;5044549;28;19923;-66
2022/08/31 00:06:27;;;;;;;;;;;;;;;;;;5047020;28;19917;-66
2022/08/31 00:08:53;;;;;;;;;;;;;;;;;;5050267;28;19974;-66
2022/08/31 00:11:26;;;;;;;;;;;;;;;;;;5049988;28;19911;-66
2022/08/31 00:13:53;;;;;;;;;;;;;;;;;;5050306;28;19913;-66
2022/08/31 00:16:19;;;;;;;;;;;;;;;;;;5048698;28;19937;-67
2022/08/31 00:18:45;;;;;;;;;;;;;;;;;;5050146;28;20307;-65
2022/08/31 00:21:11;;;;;;;;;;;;;;;;;;5049966;28;19908;-66
2022/08/31 00:23:38;;;;;;;;;;;;;;;;;;5049054;28;19913;-66
2022/08/31 00:26:04;;;;;;;;;;;;;;;;;;5049733;28;19979;-67
2022/08/31 00:28:30;;;;;;;;;;;;;;;;;;5049441;28;20361;-67
2022/08/31 00:30:56;;;;;;;;;;;;;;;;;;5049712;28;19909;-67
2022/08/31 00:33:22;;;;;;;;;;;;;;;;;;5049439;28;19913;-67
2022/08/31 00:35:48;;;;;;;;;;;;;;;;;;5048857;28;20074;-66
2022/08/31 00:38:15;;;;;;;;;;;;;;;;;;5049581;28;19921;-67
2022/08/31 00:40:41;;;;;;;;;;;;;;;;;;5049335;28;19912;-67
2022/08/31 00:43:07;;;;;;;;;;;;;;;;;;5050108;28;20015;-67
2022/08/31 00:45:33;;;;;;;;;;;;;;;;;;5048027;28;19917;-66
2022/08/31 00:47:59;;;;;;;;;;;;;;;;;;5049429;28;19999;-67
2022/08/31 00:50:25;;;;;;;;;;;;;;;;;;5049243;28;19942;-67
2022/08/31 00:52:50;;;;;;;;;;;;;;;;;;5049457;28;19956;-67
2022/08/31 00:55:16;;;;;;;;;;;;;;;;;;5048806;28;19917;-67
2022/08/31 00:57:42;;;;;;;;;;;;;;;;;;5049089;28;19913;-67
2022/08/31 01:00:08;;;;;;;;;;;;;;;;;;5049175;28;20027;-68
2022/08/31 01:02:34;;;;;;;;;;;;;;;;;;5048575;28;19972;-68
2022/08/31 01:05:00;;;;;;;;;;;;;;;;;;5047773;28;19979;-68
2022/08/31 01:07:26;;;;;;;;;;;;;;;;;;5048490;28;19913;-68
2022/08/31 01:09:52;;;;;;;;;;;;;;;;;;5048982;28;19909;-68
2022/08/31 01:12:18;;;;;;;;;;;;;;;;;;5048475;28;19935;-66
2022/08/31 01:14:44;;;;;;;;;;;;;;;;;;5048162;28;19916;-67
2022/08/31 01:17:10;;;;;;;;;;;;;;;;;;5047811;28;19913;-66
2022/08/31 01:19:36;;;;;;;;;;;;;;;;;;5049127;28;19963;-67
2022/08/31 01:22:02;;;;;;;;;;;;;;;;;;5048862;28;19948;-66
2022/08/31 01:24:28;;;;;;;;;;;;;;;;;;5048612;28;19973;-67
2022/08/31 01:26:54;;;;;;;;;;;;;;;;;;5047222;28;19928;-65
2022/08/31 01:29:20;;;;;;;;;;;;;;;;;;5048398;28;19913;-67
2022/08/31 01:31:46;;;;;;;;;;;;;;;;;;5048326;28;19996;-67
2022/08/31 01:34:12;;;;;;;;;;;;;;;;;;5030414;28;19975;-67
2022/08/31 01:36:38;;;;;;;;;;;;;;;;;;5047019;28;19939;-66
2022/08/31 01:39:04;;;;;;;;;;;;;;;;;;5048956;28;19935;-67
2022/08/31 01:41:29;;;;;;;;;;;;;;;;;;5048075;28;19909;-67
2022/08/31 01:43:56;;;;;;;;;;;;;;;;;;5048283;28;19916;-67
2022/08/31 01:46:21;;;;;;;;;;;;;;;;;;5047039;28;19920;-67
2022/08/31 01:48:47;;;;;;;;;;;;;;;;;;5047523;28;20566;-67
2022/08/31 01:51:13;;;;;;;;;;;;;;;;;;5048158;28;19938;-67
2022/08/31 01:53:39;;;;;;;;;;;;;;;;;;5048202;28;19912;-65
2022/08/31 01:56:05;;;;;;;;;;;;;;;;;;5047895;28;19927;-65
2022/08/31 01:58:31;;;;;;;;;;;;;;;;;;5047748;28;19909;-65
2022/08/31 02:00:59;;;;;;;;;;;;;;;;;;5047210;28;19999;-65
2022/08/31 02:03:25;;;;;;;;;;;;;;;;;;5047548;28;20387;-64
2022/08/31 02:05:51;;;;;;;;;;;;;;;;;;5047125;28;19913;-65
2022/08/31 02:08:16;;;;;;;;;;;;;;;;;;5047609;28;19939;-65
2022/08/31 02:10:43;;;;;;;;;;;;;;;;;;5047596;28;19916;-65
2022/08/31 02:13:09;;;;;;;;;;;;;;;;;;5047697;28;20431;-64
2022/08/31 02:15:35;;;;;;;;;;;;;;;;;;5047308;28;19962;-64
2022/08/31 02:18:00;;;;;;;;;;;;;;;;;;5047551;28;19909;-64
2022/08/31 02:20:26;;;;;;;;;;;;;;;;;;5047147;28;19986;-64
2022/08/31 02:22:52;;;;;;;;;;;;;;;;;;5047783;28;20027;-63
2022/08/31 02:25:18;;;;;;;;;;;;;;;;;;5046489;28;19920;-63
2022/08/31 02:27:44;;;;;;;;;;;;;;;;;;5046608;28;19943;-63
2022/08/31 02:30:10;;;;;;;;;;;;;;;;;;5047210;28;19909;-64
2022/08/31 02:32:36;;;;;;;;;;;;;;;;;;5047678;28;19908;-64
2022/08/31 02:35:02;;;;;;;;;;;;;;;;;;5047484;28;19932;-63
2022/08/31 02:37:28;;;;;;;;;;;;;;;;;;5046745;28;20368;-63
2022/08/31 02:39:54;;;;;;;;;;;;;;;;;;5047221;28;19966;-63
2022/08/31 02:42:20;;;;;;;;;;;;;;;;;;5046791;28;19912;-63
2022/08/31 02:44:46;;;;;;;;;;;;;;;;;;5045803;28;19923;-64
2022/08/31 02:47:12;;;;;;;;;;;;;;;;;;5046108;28;19920;-63
2022/08/31 02:49:38;;;;;;;;;;;;;;;;;;5046705;28;19913;-63
2022/08/31 02:52:04;;;;;;;;;;;;;;;;;;5047818;28;19921;-63
2022/08/31 02:54:30;;;;;;;;;;;;;;;;;;5046151;28;19940;-63
2022/08/31 02:56:56;;;;;;;;;;;;;;;;;;5046376;28;20005;-63
2022/08/31 02:59:22;;;;;;;;;;;;;;;;;;5046320;28;19909;-63
2022/08/31 03:01:48;;;;;;;;;;;;;;;;;;5046761;28;19959;-63
2022/08/31 03:04:15;;;;;;;;;;;;;;;;;;5046907;28;20395;-63
2022/08/31 03:06:41;;;;;;;;;;;;;;;;;;5044244;28;19919;-63
2022/08/31 03:09:07;;;;;;;;;;;;;;;;;;5045485;28;19913;-63
2022/08/31 03:11:33;;;;;;;;;;;;;;;;;;5045658;28;20007;-63
2022/08/31 03:13:59;;;;;;;;;;;;;;;;;;5044356;28;19924;-63
2022/08/31 03:16:25;;;;;;;;;;;;;;;;;;5044695;28;19963;-63
2022/08/31 03:18:52;;;;;;;;;;;;;;;;;;5044290;28;19956;-62
2022/08/31 03:21:17;;;;;;;;;;;;;;;;;;5044905;28;19920;-62
2022/08/31 03:23:44;;;;;;;;;;;;;;;;;;5045362;28;19917;-41
2022/08/31 03:26:10;;;;;;;;;;;;;;;;;;5045268;28;19913;-41
2022/08/31 03:28:36;;;;;;;;;;;;;;;;;;5044529;28;19970;-42
2022/08/31 03:31:02;;;;;;;;;;;;;;;;;;5045457;28;20300;-41
2022/08/31 03:33:28;;;;;;;;;;;;;;;;;;5044913;28;19913;-41
2022/08/31 03:35:55;;;;;;;;;;;;;;;;;;5045005;28;20024;-41
2022/08/31 03:38:22;;;;;;;;;;;;;;;;;;5045589;28;19932;-42
2022/08/31 03:40:49;;;;;;;;;;;;;;;;;;5049006;28;19916;-41
2022/08/31 03:43:15;;;;;;;;;;;;;;;;;;5048876;28;20306;-41
2022/08/31 03:45:41;;;;;;;;;;;;;;;;;;5047754;28;19916;-41
2022/08/31 03:48:07;;;;;;;;;;;;;;;;;;5048589;28;19970;-41
2022/08/31 03:50:33;;;;;;;;;;;;;;;;;;5048139;28;19916;-41
2022/08/31 03:53:02;;;;;;;;;;;;;;;;;;5049178;28;19913;-41
2022/08/31 03:55:29;;;;;;;;;;;;;;;;;;5048445;28;19912;-41
2022/08/31 03:57:55;;;;;;;;;;;;;;;;;;5048754;28;19912;-41
2022/08/31 04:00:21;;;;;;;;;;;;;;;;;;5047344;28;19965;-41
2022/08/31 04:02:47;;;;;;;;;;;;;;;;;;5048736;28;20224;-41
2022/08/31 04:05:14;;;;;;;;;;;;;;;;;;5048638;28;19916;-41
2022/08/31 04:07:40;;;;;;;;;;;;;;;;;;5047389;28;20500;-41
2022/08/31 04:10:06;;;;;;;;;;;;;;;;;;5048708;28;19916;-41
2022/08/31 04:12:32;;;;;;;;;;;;;;;;;;5048525;28;19916;-41
2022/08/31 04:14:58;;;;;;;;;;;;;;;;;;5048126;28;19960;-41
2022/08/31 04:17:24;;;;;;;;;;;;;;;;;;5046774;28;19928;-41
2022/08/31 04:19:50;;;;;;;;;;;;;;;;;;5047784;28;19908;-42
2022/08/31 04:22:15;;;;;;;;;;;;;;;;;;5048389;28;19974;-41
2022/08/31 04:24:42;;;;;;;;;;;;;;;;;;5048185;28;19958;-41
2022/08/31 04:27:08;;;;;;;;;;;;;;;;;;5047442;28;19995;-41
2022/08/31 04:29:33;;;;;;;;;;;;;;;;;;5048177;28;20024;-42
2022/08/31 04:31:59;;;;;;;;;;;;;;;;;;5048068;28;20334;-41
2022/08/31 04:34:25;;;;;;;;;;;;;;;;;;5048059;28;20015;-41
2022/08/31 04:36:51;;;;;;;;;;;;;;;;;;5047036;28;19935;-41
2022/08/31 04:39:17;;;;;;;;;;;;;;;;;;5046481;28;20039;-41
2022/08/31 04:41:43;;;;;;;;;;;;;;;;;;5047936;28;19920;-41
2022/08/31 04:44:10;;;;;;;;;;;;;;;;;;5047889;28;19921;-41
2022/08/31 04:46:36;;;;;;;;;;;;;;;;;;5048203;28;20379;-41
2022/08/31 04:49:01;;;;;;;;;;;;;;;;;;5046667;28;20011;-41
2022/08/31 04:51:27;;;;;;;;;;;;;;;;;;5046554;28;19912;-41
2022/08/31 04:53:53;;;;;;;;;;;;;;;;;;5048240;28;20380;-41
2022/08/31 04:56:19;;;;;;;;;;;;;;;;;;5046693;28;19966;-41
2022/08/31 04:58:46;;;;;;;;;;;;;;;;;;5045787;28;20311;-41
2022/08/31 05:01:12;;;;;;;;;;;;;;;;;;5047716;28;20370;-41
2022/08/31 05:03:39;;;;;;;;;;;;;;;;;;5047292;28;19909;-41
2022/08/31 05:06:05;;;;;;;;;;;;;;;;;;5047073;28;19913;-41
2022/08/31 05:08:31;;;;;;;;;;;;;;;;;;5046367;28;19928;-41
2022/08/31 05:10:57;;;;;;;;;;;;;;;;;;5046606;28;20482;-41
2022/08/31 05:13:23;;;;;;;;;;;;;;;;;;5046866;28;19909;-41
2022/08/31 05:15:49;;;;;;;;;;;;;;;;;;5047245;28;19920;-41
2022/08/31 05:18:15;;;;;;;;;;;;;;;;;;5046848;28;19932;-41
2022/08/31 05:20:41;;;;;;;;;;;;;;;;;;5046880;28;20050;-41
2022/08/31 05:23:07;;;;;;;;;;;;;;;;;;5047549;28;19908;-41
2022/08/31 05:25:33;;;;;;;;;;;;;;;;;;5047235;28;19909;-41
2022/08/31 05:27:58;;;;;;;;;;;;;;;;;;5046092;28;19923;-41
2022/08/31 05:30:25;;;;;;;;;;;;;;;;;;5046671;28;20384;-41
2022/08/31 05:32:52;;;;;;;;;;;;;;;;;;5044811;28;20563;-41
2022/08/31 05:35:18;;;;;;;;;;;;;;;;;;5046780;28;19908;-41
2022/08/31 05:37:44;;;;;;;;;;;;;;;;;;5046994;28;19917;-41
2022/08/31 05:40:11;;;;;;;;;;;;;;;;;;5046826;28;19913;-41
2022/08/31 05:42:37;;;;;;;;;;;;;;;;;;5045301;28;19921;-40
2022/08/31 05:45:03;;;;;;;;;;;;;;;;;;5047455;28;19915;-41
2022/08/31 05:47:29;;;;;;;;;;;;;;;;;;5045373;28;20059;-41
2022/08/31 05:49:55;;;;;;;;;;;;;;;;;;5047038;28;19999;-41
2022/08/31 05:52:21;;;;;;;;;;;;;;;;;;5047479;28;19912;-41
2022/08/31 05:54:47;;;;;;;;;;;;;;;;;;5047328;28;19947;-41
2022/08/31 05:57:13;;;;;;;;;;;;;;;;;;5047691;28;20787;-41
2022/08/31 05:59:39;;;;;;;;;;;;;;;;;;5046071;28;19912;-41
2022/08/31 06:02:07;;;;;;;;;;;;;;;;;;5045978;28;19917;-41
2022/08/31 06:04:33;;;;;;;;;;;;;;;;;;5048096;28;20004;-40
2022/08/31 06:06:59;;;;;;;;;;;;;;;;;;5046670;28;19999;-40
2022/08/31 06:09:25;;;;;;;;;;;;;;;;;;5045684;28;20023;-41
2022/08/31 06:11:52;;;;;;;;;;;;;;;;;;5047704;28;19920;-40
2022/08/31 06:14:21;;;;;;;;;;;;;;;;;;5046733;28;20291;-41
2022/08/31 06:16:47;;;;;;;;;;;;;;;;;;5047633;28;19917;-40
2022/08/31 06:19:13;;;;;;;;;;;;;;;;;;5046632;28;19924;-40
2022/08/31 06:21:39;;;;;;;;;;;;;;;;;;5045774;28;19913;-40
2022/08/31 06:24:05;;;;;;;;;;;;;;;;;;5046823;28;19951;-40
2022/08/31 06:26:31;;;;;;;;;;;;;;;;;;5046252;28;19956;-40
2022/08/31 06:28:57;;;;;;;;;;;;;;;;;;5047503;28;19916;-41
2022/08/31 06:31:25;;;;;;;;;;;;;;;;;;5046161;28;19916;-40
2022/08/31 06:33:51;;;;;;;;;;;;;;;;;;5047069;28;19908;-41
2022/08/31 06:36:17;;;;;;;;;;;;;;;;;;5044006;28;19917;-41
2022/08/31 06:38:43;;;;;;;;;;;;;;;;;;5044336;28;20236;-41
2022/08/31 06:41:09;;;;;;;;;;;;;;;;;;5044995;28;19921;-41
2022/08/31 06:43:35;;;;;;;;;;;;;;;;;;5045585;28;20323;-41
2022/08/31 06:46:01;;;;;;;;;;;;;;;;;;5045510;28;19963;-41
2022/08/31 06:48:27;;;;;;;;;;;;;;;;;;5044336;28;20699;-40
2022/08/31 06:50:52;;;;;;;;;;;;;;;;;;5044039;28;20348;-41
2022/08/31 06:53:19;;;;;;;;;;;;;;;;;;5045222;28;19955;-41
2022/08/31 06:55:45;;;;;;;;;;;;;;;;;;5045647;28;19917;-41
2022/08/31 06:58:12;;;;;;;;;;;;;;;;;;5041632;28;20332;-40
2022/08/31 07:00:39;;;;;;;;;;;;;;;;;;5044472;28;19916;-41
2022/08/31 07:03:21;;;;;;;;;;;;;;;;;;5046089;28;19920;-41
2022/08/31 07:05:47;;;;;;;;;;;;;;;;;;5045222;28;19960;-41
2022/08/31 07:08:13;;;;;;;;;;;;;;;;;;5040452;28;20419;-41
2022/08/31 07:10:39;;;;;;;;;;;;;;;;;;5043757;28;19962;-40
2022/08/31 07:13:05;;;;;;;;;;;;;;;;;;5040672;28;20018;-41
2022/08/31 07:15:31;;;;;;;;;;;;;;;;;;5046106;28;19948;-41
2022/08/31 07:17:57;;;;;;;;;;;;;;;;;;5039157;28;19917;-41
2022/08/31 07:20:23;;;;;;;;;;;;;;;;;;5039245;28;19940;-41
2022/08/31 07:22:49;;;;;;;;;;;;;;;;;;5040459;28;19917;-41
2022/08/31 07:25:16;;;;;;;;;;;;;;;;;;5046131;28;19970;-40
2022/08/31 07:27:43;;;;;;;;;;;;;;;;;;5043946;28;19970;-41
2022/08/31 07:30:09;;;;;;;;;;;;;;;;;;5045427;28;19916;-40
2022/08/31 07:32:37;;;;;;;;;;;;;;;;;;5047161;28;19913;-41
2022/08/31 07:35:03;;;;;;;;;;;;;;;;;;5045623;28;19982;-41
2022/08/31 07:42:58;;;;;;;;;;;;;;;;;;5031647;28;19923;-41
2022/08/31 07:45:24;;;;;;;;;;;;;;;;;;5045520;28;19917;-41
2022/08/31 07:47:50;;;;;;;;;;;;;;;;;;5035084;28;20322;-41
2022/08/31 07:50:16;;;;;;;;;;;;;;;;;;5044978;28;19936;-41
2022/08/31 07:52:43;;;;;;;;;;;;;;;;;;5046407;28;19924;-41
2022/08/31 07:55:10;;;;;;;;;;;;;;;;;;5027633;28;20615;-40
2022/08/31 07:57:36;;;;;;;;;;;;;;;;;;5046902;28;19966;-41
2022/08/31 08:00:07;;;;;;;;;;;;;;;;;;5044941;28;20018;-41
2022/08/31 08:02:36;;;;;;;;;;;;;;;;;;5028824;28;19921;-41
2022/08/31 08:05:04;;;;;;;;;;;;;;;;;;5046604;28;19932;-41
2022/08/31 08:07:32;;;;;;;;;;;;;;;;;;5046261;28;19913;-41
2022/08/31 08:09:58;;;;;;;;;;;;;;;;;;5044448;28;19930;-41
2022/08/31 08:12:26;;;;;;;;;;;;;;;;;;5045855;28;20456;-41
2022/08/31 08:14:53;;;;;;;;;;;;;;;;;;5040094;28;19913;-41
2022/08/31 08:17:20;;;;;;;;;;;;;;;;;;5044838;28;19913;-41
2022/08/31 08:19:46;;;;;;;;;;;;;;;;;;5044830;28;19952;-41
2022/08/31 08:22:12;;;;;;;;;;;;;;;;;;5038755;28;20019;-41
2022/08/31 08:24:38;;;;;;;;;;;;;;;;;;5036018;28;19924;-41
2022/08/31 08:27:04;;;;;;;;;;;;;;;;;;5046406;28;20020;-41
2022/08/31 08:29:30;;;;;;;;;;;;;;;;;;5043403;28;19916;-41
2022/08/31 08:31:56;;;;;;;;;;;;;;;;;;5049212;28;19959;-42
2022/08/31 08:34:22;;;;;;;;;;;;;;;;;;5048476;28;19917;-41
2022/08/31 08:36:48;;;;;;;;;;;;;;;;;;5050167;28;19943;-41
2022/08/31 08:39:14;;;;;;;;;;;;;;;;;;5047921;28;19958;-41
2022/08/31 08:41:40;;;;;;;;;;;;;;;;;;5049538;28;19917;-42
2022/08/31 08:44:06;;;;;;;;;;;;;;;;;;5047555;28;19916;-41
2022/08/31 08:46:32;;;;;;;;;;;;;;;;;;5048931;28;19917;-41
2022/08/31 08:48:59;;;;;;;;;;;;;;;;;;5047253;28;19967;-41
2022/08/31 08:51:25;;;;;;;;;;;;;;;;;;5046831;28;19913;-42
2022/08/31 08:53:51;;;;;;;;;;;;;;;;;;5048371;28;19921;-42
2022/08/31 08:56:19;;;;;;;;;;;;;;;;;;5048878;28;20323;-41
2022/08/31 08:58:45;;;;;;;;;;;;;;;;;;5048117;28;19924;-42
2022/08/31 09:01:12;;;;;;;;;;;;;;;;;;5045550;28;20295;-41
2022/08/31 09:03:43;;;;;;;;;;;;;;;;;;5047194;28;19956;-41
2022/08/31 09:06:08;;;;;;;;;;;;;;;;;;5048607;28;19916;-41
2022/08/31 09:08:34;;;;;;;;;;;;;;;;;;5047480;28;19975;-42
2022/08/31 09:11:00;;;;;;;;;;;;;;;;;;5047359;28;19924;-42
2022/08/31 09:13:28;;;;;;;;;;;;;;;;;;5044990;28;19913;-41
2022/08/31 09:15:54;;;;;;;;;;;;;;;;;;5048284;28;19917;-41
2022/08/31 09:18:20;;;;;;;;;;;;;;;;;;5047177;28;19928;-42
2022/08/31 09:20:46;;;;;;;;;;;;;;;;;;5048453;28;19913;-42
2022/08/31 09:23:12;;;;;;;;;;;;;;;;;;5047474;28;19917;-42
2022/08/31 09:25:39;;;;;;;;;;;;;;;;;;5046697;28;20007;-41
2022/08/31 09:28:06;;;;;;;;;;;;;;;;;;5047297;28;19972;-43
2022/08/31 09:30:32;;;;;;;;;;;;;;;;;;5044427;28;20000;-41
2022/08/31 09:32:58;;;;;;;;;;;;;;;;;;5048147;28;20003;-42
2022/08/31 09:35:24;;;;;;;;;;;;;;;;;;5046795;28;20023;-42
2022/08/31 09:37:51;;;;;;;;;;;;;;;;;;5045946;28;19913;-41
2022/08/31 09:40:17;;;;;;;;;;;;;;;;;;5046892;28;19920;-42
2022/08/31 09:42:43;;;;;;;;;;;;;;;;;;5048182;28;19917;-42
2022/08/31 09:45:11;;;;;;;;;;;;;;;;;;5045226;28;19919;-42
2022/08/31 09:47:47;;;;;;;;;;;;;;;;;;5047191;28;19978;-42
2022/08/31 09:50:13;;;;;;;;;;;;;;;;;;5046263;28;19920;-42
2022/08/31 09:55:24;;;;;;;;;;;;;;;;;;5045100;28;20350;-42
2022/08/31 09:57:53;;;;;;;;;;;;;;;;;;5047616;28;19909;-42
2022/08/31 10:00:20;;;;;;;;;;;;;;;;;;5045772;28;19913;-42
2022/08/31 10:02:48;;;;;;;;;;;;;;;;;;5046675;28;19917;-42
2022/08/31 10:05:16;;;;;;;;;;;;;;;;;;5045669;28;19921;-42
2022/08/31 10:07:42;;;;;;;;;;;;;;;;;;5046985;28;19975;-42
2022/08/31 10:10:09;;;;;;;;;;;;;;;;;;5046444;28;19936;-42
2022/08/31 10:12:36;;;;;;;;;;;;;;;;;;5043969;28;19999;-42
2022/08/31 10:15:02;;;;;;;;;;;;;;;;;;5043292;28;19917;-42
2022/08/31 10:17:28;;;;;;;;;;;;;;;;;;5047081;28;19979;-42
2022/08/31 10:19:54;;;;;;;;;;;;;;;;;;5045774;28;20376;-42
2022/08/31 10:22:24;;;;;;;;;;;;;;;;;;5047085;28;20874;-42
2022/08/31 10:24:50;;;;;;;;;;;;;;;;;;5038983;28;19996;-42
2022/08/31 10:27:16;;;;;;;;;;;;;;;;;;5047385;28;20364;-43
2022/08/31 10:29:42;;;;;;;;;;;;;;;;;;5044705;28;19924;-42
2022/08/31 10:32:08;;;;;;;;;;;;;;;;;;5046274;28;19970;-42
2022/08/31 10:37:19;;;;;;;;;;;;;;;;;;5046836;28;20016;-42
2022/08/31 10:39:45;;;;;;;;;;;;;;;;;;5044447;28;20027;-43
2022/08/31 10:42:11;;;;;;;;;;;;;;;;;;5046936;28;19915;-43
2022/08/31 10:44:38;;;;;;;;;;;;;;;;;;5043841;28;20212;-44
2022/08/31 10:47:04;;;;;;;;;;;;;;;;;;5046580;28;20004;-44
2022/08/31 10:49:31;;;;;;;;;;;;;;;;;;5043895;28;19916;-43
2022/08/31 10:52:00;;;;;;;;;;;;;;;;;;5047182;28;19916;-43
2022/08/31 10:54:27;;;;;;;;;;;;;;;;;;5026379;28;19921;-44
2022/08/31 10:56:58;;;;;;;;;;;;;;;;;;5046854;28;19917;-44
2022/08/31 10:59:24;;;;;;;;;;;;;;;;;;5044824;28;19924;-44
2022/08/31 11:01:49;;;;;;;;;;;;;;;;;;5047206;28;19921;-43
2022/08/31 11:04:17;;;;;;;;;;;;;;;;;;5045477;28;19958;-44
2022/08/31 11:06:43;;;;;;;;;;;;;;;;;;5047036;28;19916;-44
2022/08/31 11:09:09;;;;;;;;;;;;;;;;;;5045606;28;20019;-43
2022/08/31 11:11:35;;;;;;;;;;;;;;;;;;5043746;28;19917;-45
2022/08/31 11:14:01;;;;;;;;;;;;;;;;;;5045669;28;19913;-44
2022/08/31 11:16:26;;;;;;;;;;;;;;;;;;5045013;28;19936;-44
2022/08/31 11:18:52;;;;;;;;;;;;;;;;;;5046219;28;19999;-45
2022/08/31 11:21:19;;;;;;;;;;;;;;;;;;5045749;28;19914;-44
2022/08/31 11:23:46;;;;;;;;;;;;;;;;;;5045976;28;19920;-44
2022/08/31 11:26:12;;;;;;;;;;;;;;;;;;5045713;28;19919;-43
2022/08/31 11:28:38;;;;;;;;;;;;;;;;;;5045591;28;19920;-44
2022/08/31 11:31:04;;;;;;;;;;;;;;;;;;5046501;28;19920;-44
2022/08/31 11:33:30;;;;;;;;;;;;;;;;;;5046522;28;20400;-43
2022/08/31 11:36:00;;;;;;;;;;;;;;;;;;5046313;28;19909;-45
2022/08/31 11:38:26;;;;;;;;;;;;;;;;;;5045344;28;19951;-43
2022/08/31 11:40:51;;;;;;;;;;;;;;;;;;5046240;28;19953;-44
2022/08/31 11:43:17;;;;;;;;;;;;;;;;;;5046129;28;19939;-45
2022/08/31 11:45:45;;;;;;;;;;;;;;;;;;5047387;28;19921;-44
2022/08/31 11:48:12;;;;;;;;;;;;;;;;;;5045532;28;20412;-44
2022/08/31 11:50:37;;;;;;;;;;;;;;;;;;5042719;28;19998;-44
2022/08/31 11:53:05;;;;;;;;;;;;;;;;;;5045210;28;19921;-47
2022/08/31 11:55:31;;;;;;;;;;;;;;;;;;5046318;28;20307;-44
2022/08/31 11:58:01;;;;;;;;;;;;;;;;;;5045857;28;20002;-44
2022/08/31 12:00:27;;;;;;;;;;;;;;;;;;5046768;28;19940;-44
2022/08/31 12:02:53;;;;;;;;;;;;;;;;;;5050301;28;20432;-44
2022/08/31 12:05:20;;;;;;;;;;;;;;;;;;5050232;28;19919;-45
2022/08/31 12:07:47;;;;;;;;;;;;;;;;;;5048664;28;19925;-45
2022/08/31 12:10:13;;;;;;;;;;;;;;;;;;5049970;28;19916;-45
2022/08/31 12:12:41;;;;;;;;;;;;;;;;;;5049755;28;20256;-46
2022/08/31 12:15:07;;;;;;;;;;;;;;;;;;5050097;28;20373;-45
2022/08/31 12:17:33;;;;;;;;;;;;;;;;;;5047986;28;19946;-46
2022/08/31 12:20:06;;;;;;;;;;;;;;;;;;5048854;28;19994;-47
2022/08/31 12:25:16;;;;;;;;;;;;;;;;;;5047277;28;20391;-44
2022/08/31 12:27:42;;;;;;;;;;;;;;;;;;5050131;28;20007;-45
2022/08/31 12:30:08;;;;;;;;;;;;;;;;;;5049213;28;19913;-45
2022/08/31 12:32:37;;;;;;;;;;;;;;;;;;5047901;28;19913;-45
2022/08/31 12:35:03;;;;;;;;;;;;;;;;;;5048287;28;20016;-45
2022/08/31 12:37:29;;;;;;;;;;;;;;;;;;5047981;28;20067;-44
2022/08/31 12:39:55;;;;;;;;;;;;;;;;;;5047982;28;19912;-44
2022/08/31 12:42:21;;;;;;;;;;;;;;;;;;5047516;28;19916;-45
2022/08/31 12:44:48;;;;;;;;;;;;;;;;;;5047941;28;20411;-45
2022/08/31 12:47:14;;;;;;;;;;;;;;;;;;5048395;28;20264;-44
2022/08/31 12:49:40;;;;;;;;;;;;;;;;;;5048439;28;20058;-45
2022/08/31 12:52:06;;;;;;;;;;;;;;;;;;5047953;28;19912;-48
2022/08/31 12:54:31;;;;;;;;;;;;;;;;;;5047659;28;19905;-45
2022/08/31 12:56:57;;;;;;;;;;;;;;;;;;5047680;28;19915;-45
2022/08/31 12:59:24;;;;;;;;;;;;;;;;;;5047597;28;19913;-44
2022/08/31 13:01:50;;;;;;;;;;;;;;;;;;5047594;28;19920;-46
2022/08/31 13:04:16;;;;;;;;;;;;;;;;;;5047628;28;19909;-45
2022/08/31 13:06:43;;;;;;;;;;;;;;;;;;5047987;28;20406;-46
2022/08/31 13:09:09;;;;;;;;;;;;;;;;;;5046418;28;20726;-45
2022/08/31 13:11:37;;;;;;;;;;;;;;;;;;5046657;28;19966;-44
2022/08/31 13:14:03;;;;;;;;;;;;;;;;;;5046907;28;19936;-45
2022/08/31 13:16:29;;;;;;;;;;;;;;;;;;5047349;28;20584;-44
2022/08/31 13:18:54;;;;;;;;;;;;;;;;;;5048144;28;20351;-45
2022/08/31 13:21:21;;;;;;;;;;;;;;;;;;5047129;28;19912;-45
2022/08/31 13:23:47;;;;;;;;;;;;;;;;;;5047114;28;19908;-45
2022/08/31 13:26:19;;;;;;;;;;;;;;;;;;5047220;28;19916;-46
2022/08/31 13:28:46;;;;;;;;;;;;;;;;;;5047136;28;19916;-45
2022/08/31 13:31:12;;;;;;;;;;;;;;;;;;5046965;28;19912;-45
2022/08/31 13:33:41;;;;;;;;;;;;;;;;;;5047130;28;19913;-46
2022/08/31 13:36:08;;;;;;;;;;;;;;;;;;5047119;28;19909;-44
2022/08/31 13:38:43;;;;;;;;;;;;;;;;;;5046615;28;20012;-49
2022/08/31 13:41:10;;;;;;;;;;;;;;;;;;5046692;28;19913;-44
2022/08/31 13:43:36;;;;;;;;;;;;;;;;;;5046538;28;19944;-45
2022/08/31 13:46:03;;;;;;;;;;;;;;;;;;5046950;28;19955;-47
2022/08/31 13:48:29;;;;;;;;;;;;;;;;;;5046536;28;20344;-46
2022/08/31 13:50:55;;;;;;;;;;;;;;;;;;5047309;28;19967;-42
2022/08/31 13:53:21;;;;;;;;;;;;;;;;;;5046749;28;19909;-45
2022/08/31 13:55:48;;;;;;;;;;;;;;;;;;5047168;28;19918;-42
2022/08/31 13:58:14;;;;;;;;;;;;;;;;;;5046669;28;19917;-43
2022/08/31 14:00:40;;;;;;;;;;;;;;;;;;5046186;28;20008;-44
2022/08/31 14:03:07;;;;;;;;;;;;;;;;;;5046662;28;20024;-44
2022/08/31 14:05:34;;;;;;;;;;;;;;;;;;5046221;28;19990;-43
2022/08/31 14:08:01;;;;;;;;;;;;;;;;;;5046257;28;19970;-44
2022/08/31 14:10:26;;;;;;;;;;;;;;;;;;5046046;28;19908;-43
2022/08/31 14:12:52;;;;;;;;;;;;;;;;;;5046939;28;20341;-42
2022/08/31 14:15:18;;;;;;;;;;;;;;;;;;5046096;28;19970;-42
2022/08/31 14:17:45;;;;;;;;;;;;;;;;;;5046388;28;19920;-43
2022/08/31 14:20:13;;;;;;;;;;;;;;;;;;5046230;28;20380;-42
2022/08/31 14:22:44;;;;;;;;;;;;;;;;;;5045514;28;20007;-42
2022/08/31 14:25:11;;;;;;;;;;;;;;;;;;5045594;28;20070;-42
2022/08/31 14:27:41;;;;;;;;;;;;;;;;;;5046025;28;19913;-43
2022/08/31 14:30:08;;;;;;;;;;;;;;;;;;5046293;28;20293;-44
2022/08/31 14:32:34;;;;;;;;;;;;;;;;;;5044865;28;19928;-43
2022/08/31 14:35:01;;;;;;;;;;;;;;;;;;5045911;28;19916;-43
2022/08/31 14:37:29;;;;;;;;;;;;;;;;;;5041967;28;19913;-44
2022/08/31 14:40:03;;;;;;;;;;;;;;;;;;5047602;28;20307;-43
2022/08/31 14:42:29;;;;;;;;;;;;;;;;;;5046734;28;20066;-42
2022/08/31 14:44:58;;;;;;;;;;;;;;;;;;5047036;28;20003;-42
2022/08/31 14:47:24;;;;;;;;;;;;;;;;;;5045281;28;19917;-46
2022/08/31 14:49:50;;;;;;;;;;;;;;;;;;5046197;28;19920;-43
2022/08/31 14:52:16;;;;;;;;;;;;;;;;;;5047021;28;20339;-43
2022/08/31 14:54:42;;;;;;;;;;;;;;;;;;5046285;28;19919;-44
2022/08/31 14:57:08;;;;;;;;;;;;;;;;;;5045433;28;20001;-44
2022/08/31 14:59:34;;;;;;;;;;;;;;;;;;5044956;28;19920;-44
2022/08/31 15:02:00;;;;;;;;;;;;;;;;;;5040101;28;20471;-43
2022/08/31 15:04:27;;;;;;;;;;;;;;;;;;5045958;28;19913;-42
2022/08/31 15:06:53;;;;;;;;;;;;;;;;;;5044412;28;19928;-44
2022/08/31 15:09:19;;;;;;;;;;;;;;;;;;5043207;28;20597;-42
2022/08/31 15:11:45;;;;;;;;;;;;;;;;;;5043400;28;20007;-42
2022/08/31 15:14:12;;;;;;;;;;;;;;;;;;5044011;28;19916;-43
2022/08/31 15:16:39;;;;;;;;;;;;;;;;;;5045302;28;19928;-42
2022/08/31 15:19:09;;;;;;;;;;;;;;;;;;5047124;28;19913;-44
2022/08/31 15:21:35;;;;;;;;;;;;;;;;;;5044391;28;20387;-42
2022/08/31 15:24:02;;;;;;;;;;;;;;;;;;5046743;28;19917;-43
2022/08/31 15:26:28;;;;;;;;;;;;;;;;;;5043374;28;19927;-43
2022/08/31 15:28:58;;;;;;;;;;;;;;;;;;5045676;28;20435;-43
2022/08/31 15:31:24;;;;;;;;;;;;;;;;;;5026283;28;20308;-44
2022/08/31 15:33:52;;;;;;;;;;;;;;;;;;5046784;28;20356;-46
2022/08/31 15:36:20;;;;;;;;;;;;;;;;;;5050589;28;20272;-43
2022/08/31 15:38:52;;;;;;;;;;;;;;;;;;5051246;28;19920;-42
2022/08/31 15:41:19;;;;;;;;;;;;;;;;;;5051435;28;19913;-43
2022/08/31 15:43:45;;;;;;;;;;;;;;;;;;5051550;28;19999;-45
2022/08/31 15:46:12;;;;;;;;;;;;;;;;;;5051874;28;19917;-44
2022/08/31 15:48:41;;;;;;;;;;;;;;;;;;5051564;28;20293;-47
2022/08/31 15:51:07;;;;;;;;;;;;;;;;;;5048825;28;19917;-43
2022/08/31 15:53:35;;;;;;;;;;;;;;;;;;5050348;28;21954;-45
2022/08/31 15:56:04;;;;;;;;;;;;;;;;;;5050968;28;19966;-43
2022/08/31 15:58:30;;;;;;;;;;;;;;;;;;5051589;28;19959;-43
2022/08/31 16:00:56;;;;;;;;;;;;;;;;;;5052207;28;19917;-43
2022/08/31 16:03:23;;;;;;;;;;;;;;;;;;5051934;28;20000;-44
2022/08/31 16:05:49;;;;;;;;;;;;;;;;;;5051195;28;20058;-44
2022/08/31 16:08:15;;;;;;;;;;;;;;;;;;5051805;28;20023;-44
2022/08/31 16:10:41;;;;;;;;;;;;;;;;;;5051259;28;19909;-43
2022/08/31 16:13:08;;;;;;;;;;;;;;;;;;5049961;28;20465;-43
2022/08/31 16:15:34;;;;;;;;;;;;;;;;;;5052748;28;19913;-44
2022/08/31 16:18:01;;;;;;;;;;;;;;;;;;5051561;28;19982;-46
2022/08/31 16:20:28;;;;;;;;;;;;;;;;;;5052132;28;19966;-45
2022/08/31 16:22:54;;;;;;;;;;;;;;;;;;5050617;28;19917;-44
2022/08/31 16:25:20;;;;;;;;;;;;;;;;;;5052699;28;19928;-45
2022/08/31 16:27:45;;;;;;;;;;;;;;;;;;5052204;28;19944;-46
2022/08/31 16:30:11;;;;;;;;;;;;;;;;;;5052587;28;19917;-42
2022/08/31 16:32:37;;;;;;;;;;;;;;;;;;5049036;28;19923;-44
2022/08/31 16:35:04;;;;;;;;;;;;;;;;;;5052170;28;19912;-43
2022/08/31 16:37:30;;;;;;;;;;;;;;;;;;5050243;28;19917;-45
2022/08/31 16:39:56;;;;;;;;;;;;;;;;;;5035729;28;20402;-46
2022/08/31 16:42:22;;;;;;;;;;;;;;;;;;5031970;28;19982;-44
2022/08/31 16:44:48;;;;;;;;;;;;;;;;;;5049314;28;19977;-45
2022/08/31 16:47:14;;;;;;;;;;;;;;;;;;5043178;28;19913;-45
2022/08/31 16:49:42;;;;;;;;;;;;;;;;;;5048071;28;19920;-44
2022/08/31 16:52:09;;;;;;;;;;;;;;;;;;5044764;28;19913;-46
2022/08/31 16:54:35;;;;;;;;;;;;;;;;;;5048039;28;19917;-48
2022/08/31 16:57:01;;;;;;;;;;;;;;;;;;5046724;28;19915;-45